Time,TemperatureF,DewpointF,PressureIn,WindDirection,WindDirectionDegrees,WindSpeedMPH,WindSpeedGustMPH,Humidity,HourlyPrecipIn,Conditions,Clouds,dailyrainin,SoftwareType,DateUTC
2013-05-02 00:10:00,40.7,38.0,30.14,NNE,18,12.0,23.0,90,0.02,,---,0.01,VWS V14.01,2013-05-02 05:10:00,
2013-05-02 00:25:00,40.9,38.2,30.18,North,355,9.0,18.0,90,0.02,,---,0.01,VWS V14.01,2013-05-02 05:25:00,
2013-05-02 00:40:00,41.0,38.3,30.15,NNE,17,20.0,26.0,90,0.02,,---,0.01,VWS V14.01,2013-05-02 05:40:00,
2013-05-02 00:55:00,41.1,38.4,30.15,North,360,10.0,24.0,90,0.02,,---,0.01,VWS V14.01,2013-05-02 05:55:00,
2013-05-02 01:10:00,41.2,38.5,30.16,North,5,10.0,20.0,90,0.01,,---,0.01,VWS V14.01,2013-05-02 06:10:00,
2013-05-02 01:25:00,41.1,38.4,30.15,North,355,14.0,19.0,90,0.00,,---,0.01,VWS V14.01,2013-05-02 06:25:00,
2013-05-02 01:40:00,41.2,38.5,30.17,North,355,14.0,20.0,90,0.00,,---,0.01,VWS V14.01,2013-05-02 06:40:00,
2013-05-02 01:55:00,41.1,38.4,30.17,NNW,346,9.0,22.0,90,0.00,,---,0.01,VWS V14.01,2013-05-02 06:55:00,
2013-05-02 02:10:00,41.1,38.4,30.18,North,349,14.0,20.0,90,0.00,,---,0.01,VWS V14.01,2013-05-02 07:10:00,
2013-05-02 02:25:00,41.2,38.8,30.18,NNE,17,10.0,21.0,91,0.01,,---,0.02,VWS V14.01,2013-05-02 07:25:00,
2013-05-02 02:40:00,41.1,39.0,30.18,NW,326,11.0,23.0,92,0.02,,---,0.03,VWS V14.01,2013-05-02 07:40:00,
2013-05-02 02:55:00,40.9,38.8,30.20,North,360,11.0,21.0,92,0.02,,---,0.03,VWS V14.01,2013-05-02 07:55:00,
2013-05-02 03:10:00,41.0,38.6,30.20,North,360,15.0,21.0,91,0.02,,---,0.03,VWS V14.01,2013-05-02 08:10:00,
2013-05-02 03:25:00,40.9,38.8,30.19,North,360,14.0,22.0,92,0.03,,---,0.04,VWS V14.01,2013-05-02 08:25:00,
2013-05-02 03:40:00,40.8,38.7,30.20,North,5,14.0,25.0,92,0.04,,---,0.06,VWS V14.01,2013-05-02 08:40:00,
2013-05-02 03:55:00,40.9,38.8,30.22,NNW,348,12.0,26.0,92,0.03,,---,0.06,VWS V14.01,2013-05-02 08:55:00,
2013-05-02 04:10:00,40.3,38.2,30.21,North,355,9.0,19.0,92,0.04,,---,0.07,VWS V14.01,2013-05-02 09:10:00,
2013-05-02 04:25:00,39.8,38.0,30.20,North,349,9.0,22.0,93,0.06,,---,0.09,VWS V14.01,2013-05-02 09:25:00,
2013-05-02 04:40:00,39.8,38.0,30.21,NNW,342,14.0,21.0,93,0.09,,---,0.13,VWS V14.01,2013-05-02 09:40:00,
2013-05-02 04:55:00,39.9,38.0,30.21,North,355,15.0,15.0,93,0.08,,---,0.14,VWS V14.01,2013-05-02 09:55:00,
2013-05-02 05:10:00,40.0,38.1,30.23,NNE,18,12.0,20.0,93,0.12,,---,0.18,VWS V14.01,2013-05-02 10:10:00,
2013-05-02 05:25:00,39.9,38.0,30.24,North,5,10.0,19.0,93,0.18,,---,0.25,VWS V14.01,2013-05-02 10:25:00,
2013-05-02 05:40:00,40.0,38.4,30.24,North,350,13.0,17.0,94,0.20,,---,0.29,VWS V14.01,2013-05-02 10:40:00,
2013-05-02 05:55:00,40.1,38.2,30.24,NNW,341,7.0,17.0,93,0.18,,---,0.31,VWS V14.01,2013-05-02 10:55:00,
2013-05-02 06:10:00,39.9,38.0,30.24,NNW,346,16.0,21.0,93,0.17,,---,0.31,VWS V14.01,2013-05-02 11:10:00,
2013-05-02 06:25:00,39.9,38.0,30.24,NNW,343,8.0,22.0,93,0.13,,---,0.31,VWS V14.01,2013-05-02 11:25:00,
2013-05-02 06:40:00,39.8,38.0,30.24,North,360,16.0,21.0,93,0.06,,---,0.31,VWS V14.01,2013-05-02 11:40:00,
2013-05-02 06:55:00,39.8,38.0,30.25,North,350,14.0,21.0,93,0.02,,---,0.31,VWS V14.01,2013-05-02 11:55:00,
2013-05-02 07:10:00,39.7,37.8,30.27,North,355,15.0,20.0,93,0.01,,---,0.32,VWS V14.01,2013-05-02 12:10:00,
2013-05-02 07:25:00,39.5,37.4,30.26,North,360,15.0,31.0,92,0.01,,---,0.32,VWS V14.01,2013-05-02 12:25:00,
2013-05-02 07:40:00,39.5,37.4,30.29,NNW,334,12.0,18.0,92,0.01,,---,0.32,VWS V14.01,2013-05-02 12:40:00,
2013-05-02 07:55:00,38.8,36.7,30.30,North,350,7.0,19.0,92,0.01,,---,0.32,VWS V14.01,2013-05-02 12:55:00,
2013-05-02 08:10:00,38.7,36.6,30.30,NW,322,11.0,25.0,92,0.01,,---,0.32,VWS V14.01,2013-05-02 13:10:00,
2013-05-02 08:25:00,38.7,36.6,30.30,North,11,16.0,24.0,92,0.00,,---,0.32,VWS V14.01,2013-05-02 13:25:00,
2013-05-02 08:40:00,38.7,36.6,30.30,NNW,338,15.0,26.0,92,0.01,,---,0.33,VWS V14.01,2013-05-02 13:40:00,
2013-05-02 08:55:00,38.6,36.2,30.31,NNW,346,17.0,26.0,91,0.01,,---,0.33,VWS V14.01,2013-05-02 13:55:00,
2013-05-02 09:10:00,38.6,36.2,30.32,NNW,333,15.0,26.0,91,0.01,,---,0.33,VWS V14.01,2013-05-02 14:10:00,
2013-05-02 09:25:00,38.7,36.3,30.32,North,355,14.0,28.0,91,0.01,,---,0.33,VWS V14.01,2013-05-02 14:25:00,
2013-05-02 09:40:00,38.7,36.0,30.33,NNE,12,13.0,26.0,90,0.01,,---,0.33,VWS V14.01,2013-05-02 14:40:00,
2013-05-02 09:55:00,38.8,36.1,30.34,North,5,15.0,28.0,90,0.01,,---,0.34,VWS V14.01,2013-05-02 14:55:00,
2013-05-02 10:10:00,38.3,35.9,30.35,NNW,328,11.0,21.0,91,0.03,,---,0.36,VWS V14.01,2013-05-02 15:10:00,
2013-05-02 10:25:00,37.8,35.4,30.34,North,355,19.0,23.0,91,0.04,,---,0.37,VWS V14.01,2013-05-02 15:25:00,
2013-05-02 10:40:00,37.9,35.8,30.33,North,355,16.0,25.0,92,0.06,,---,0.39,VWS V14.01,2013-05-02 15:40:00,
2013-05-02 10:55:00,38.0,35.9,30.34,NNW,346,17.0,23.0,92,0.08,,---,0.41,VWS V14.01,2013-05-02 15:55:00,
2013-05-02 11:10:00,38.2,36.1,30.35,NNW,348,19.0,25.0,92,0.08,,---,0.42,VWS V14.01,2013-05-02 16:10:00,
2013-05-02 11:25:00,38.3,36.2,30.34,North,355,18.0,28.0,92,0.08,,---,0.44,VWS V14.01,2013-05-02 16:25:00,
2013-05-02 11:40:00,38.4,36.3,30.34,North,355,13.0,31.0,92,0.07,,---,0.44,VWS V14.01,2013-05-02 16:40:00,
2013-05-02 11:55:00,37.9,35.5,30.35,North,349,17.0,23.0,91,0.06,,---,0.45,VWS V14.01,2013-05-02 16:55:00,
2013-05-02 12:10:00,37.7,35.3,30.35,NNW,345,20.0,30.0,91,0.05,,---,0.46,VWS V14.01,2013-05-02 17:10:00,
2013-05-02 12:25:00,37.7,35.3,30.35,North,355,11.0,27.0,91,0.07,,---,0.49,VWS V14.01,2013-05-02 17:25:00,
2013-05-02 12:40:00,37.1,34.7,30.35,NW,325,16.0,25.0,91,0.06,,---,0.50,VWS V14.01,2013-05-02 17:40:00,
2013-05-02 12:55:00,36.1,34.0,30.34,North,355,14.0,23.0,92,0.08,,---,0.52,VWS V14.01,2013-05-02 17:55:00,
2013-05-02 13:10:00,35.7,33.9,30.35,NNW,342,14.0,22.0,93,0.09,,---,0.54,VWS V14.01,2013-05-02 18:10:00,
2013-05-02 13:25:00,35.7,33.9,30.34,NNW,348,17.0,24.0,93,0.10,,---,0.56,VWS V14.01,2013-05-02 18:25:00,
2013-05-02 13:40:00,35.2,33.4,30.33,NNW,327,11.0,28.0,93,0.08,,---,0.57,VWS V14.01,2013-05-02 18:40:00,
2013-05-02 13:55:00,35.0,33.5,30.34,North,355,16.0,20.0,94,0.08,,---,0.58,VWS V14.01,2013-05-02 18:55:00,
2013-05-02 14:10:00,35.0,33.5,30.35,NNW,342,14.0,22.0,94,0.07,,---,0.59,VWS V14.01,2013-05-02 19:10:00,
2013-05-02 14:25:00,34.8,33.2,30.36,NNW,329,7.0,19.0,94,0.05,,---,0.59,VWS V14.01,2013-05-02 19:25:00,
2013-05-02 14:40:00,34.6,33.0,30.35,NNW,328,12.0,19.0,94,0.04,,---,0.60,VWS V14.01,2013-05-02 19:40:00,
2013-05-02 14:55:00,34.4,32.9,30.35,NNW,342,12.0,21.0,94,0.03,,---,0.60,VWS V14.01,2013-05-02 19:55:00,
2013-05-02 15:10:00,33.9,32.4,30.36,NNW,341,10.0,18.0,94,0.03,,---,0.61,VWS V14.01,2013-05-02 20:10:00,
2013-05-02 15:25:00,33.7,32.4,30.36,NNW,340,11.0,18.0,95,0.03,,---,0.62,VWS V14.01,2013-05-02 20:25:00,
2013-05-02 15:40:00,33.6,32.3,30.37,NNW,348,11.0,19.0,95,0.04,,---,0.63,VWS V14.01,2013-05-02 20:40:00,
2013-05-02 15:55:00,33.8,32.5,30.35,NNW,330,13.0,25.0,95,0.03,,---,0.63,VWS V14.01,2013-05-02 20:55:00,
2013-05-02 16:10:00,33.8,32.5,30.36,NNW,342,9.0,22.0,95,0.04,,---,0.64,VWS V14.01,2013-05-02 21:10:00,
2013-05-02 16:25:00,33.7,32.4,30.37,NNW,346,10.0,22.0,95,0.04,,---,0.65,VWS V14.01,2013-05-02 21:25:00,
2013-05-02 16:40:00,33.5,32.2,30.38,NNW,348,13.0,21.0,95,0.03,,---,0.65,VWS V14.01,2013-05-02 21:40:00,
2013-05-02 16:55:00,33.4,32.1,30.38,NNW,329,11.0,21.0,95,0.02,,---,0.65,VWS V14.01,2013-05-02 21:55:00,
2013-05-02 17:10:00,33.3,32.0,30.38,NNW,334,19.0,26.0,95,0.02,,---,0.65,VWS V14.01,2013-05-02 22:10:00,
2013-05-02 17:25:00,33.2,31.9,30.38,NW,311,10.0,26.0,95,0.02,,---,0.66,VWS V14.01,2013-05-02 22:25:00,
2013-05-02 17:40:00,33.1,32.1,30.38,NNW,329,10.0,26.0,96,0.02,,---,0.67,VWS V14.01,2013-05-02 22:40:00,
2013-05-02 17:55:00,33.0,32.0,30.37,NNW,334,18.0,20.0,96,0.02,,---,0.67,VWS V14.01,2013-05-02 22:55:00,
2013-05-02 18:10:00,33.0,32.0,30.37,NNW,347,16.0,20.0,96,0.03,,---,0.68,VWS V14.01,2013-05-02 23:10:00,
2013-05-02 18:25:00,33.1,32.1,30.38,NNW,331,8.0,18.0,96,0.04,,---,0.69,VWS V14.01,2013-05-02 23:25:00,
2013-05-02 18:40:00,33.2,32.2,30.37,NNW,346,15.0,26.0,96,0.03,,---,0.69,VWS V14.01,2013-05-02 23:40:00,
2013-05-02 18:55:00,33.2,32.2,30.37,North,10,8.0,20.0,96,0.03,,---,0.70,VWS V14.01,2013-05-02 23:55:00,
2013-05-02 19:10:00,33.2,32.2,30.36,North,349,11.0,20.0,96,0.03,,---,0.70,VWS V14.01,2013-05-03 00:10:00,
2013-05-02 19:25:00,33.4,32.4,30.36,NNW,340,11.0,17.0,96,0.02,,---,0.70,VWS V14.01,2013-05-03 00:25:00,
2013-05-02 19:40:00,33.6,32.6,30.36,NNW,342,11.0,20.0,96,0.02,,---,0.71,VWS V14.01,2013-05-03 00:40:00,
2013-05-02 19:55:00,33.6,32.3,30.36,NW,321,8.0,21.0,95,0.04,,---,0.73,VWS V14.01,2013-05-03 00:55:00,
2013-05-02 20:10:00,33.6,32.3,30.36,NNW,336,8.0,24.0,95,0.04,,---,0.74,VWS V14.01,2013-05-03 01:10:00,
2013-05-02 20:25:00,33.6,32.3,30.35,NNW,333,19.0,19.0,95,0.05,,---,0.75,VWS V14.01,2013-05-03 01:25:00,
2013-05-02 20:40:00,33.7,32.4,30.35,NNW,346,13.0,24.0,95,0.05,,---,0.75,VWS V14.01,2013-05-03 01:40:00,
2013-05-02 20:55:00,33.7,32.4,30.35,North,9,13.0,22.0,95,0.04,,---,0.75,VWS V14.01,2013-05-03 01:55:00,
2013-05-02 21:10:00,34.0,32.7,30.36,North,350,8.0,22.0,95,0.03,,---,0.76,VWS V14.01,2013-05-03 02:10:00,
2013-05-02 21:25:00,34.1,32.8,30.37,North,351,10.0,18.0,95,0.02,,---,0.76,VWS V14.01,2013-05-03 02:25:00,
2013-05-02 21:40:00,34.0,32.7,30.36,North,355,6.0,12.0,95,0.02,,---,0.77,VWS V14.01,2013-05-03 02:40:00,
2013-05-02 21:55:00,34.1,32.8,30.36,North,350,5.0,11.0,95,0.02,,---,0.77,VWS V14.01,2013-05-03 02:55:00,
2013-05-02 22:10:00,34.1,32.8,30.36,NNW,337,5.0,11.0,95,0.03,,---,0.78,VWS V14.01,2013-05-03 03:10:00,
2013-05-02 22:25:00,34.1,32.8,30.33,NNW,345,4.0,12.0,95,0.02,,---,0.78,VWS V14.01,2013-05-03 03:25:00,
2013-05-02 22:40:00,34.2,32.9,30.34,NNW,345,0.0,8.0,95,0.02,,---,0.78,VWS V14.01,2013-05-03 03:40:00,
2013-05-02 22:55:00,34.2,32.9,30.35,NW,319,0.0,7.0,95,0.01,,---,0.78,VWS V14.01,2013-05-03 03:55:00,
2013-05-02 23:10:00,34.2,32.9,30.33,NW,326,0.0,0.0,95,0.01,,---,0.78,VWS V14.01,2013-05-03 04:10:00,
2013-05-02 23:25:00,34.3,33.0,30.30,NNW,327,6.0,8.0,95,0.00,,---,0.78,VWS V14.01,2013-05-03 04:25:00,
2013-05-02 23:40:00,34.3,33.0,30.31,NNW,328,2.0,8.0,95,0.01,,---,0.79,VWS V14.01,2013-05-03 04:40:00,
2013-05-02 23:55:00,34.4,33.1,30.31,NNW,328,1.0,6.0,95,0.01,,---,0.79,VWS V14.01,2013-05-03 04:55:00,